createdAt,value
2019-03-27T00:00:28.160Z,99.90
2019-03-27T00:02:59.624Z,99.90
2019-03-27T00:05:31.331Z,99.90
2019-03-27T00:08:02.775Z,99.90
2019-03-27T00:10:34.589Z,99.90
2019-03-27T00:13:06.779Z,99.90
2019-03-27T00:15:38.516Z,99.90
2019-03-27T00:18:10.070Z,99.90
2019-03-27T00:20:41.473Z,99.90
2019-03-27T00:23:12.925Z,99.90
2019-03-27T00:25:44.417Z,99.90
2019-03-27T00:28:16.156Z,99.90
2019-03-27T00:30:47.628Z,99.90
2019-03-27T00:33:19.292Z,99.90
2019-03-27T00:35:50.693Z,99.90
2019-03-27T00:38:22.348Z,99.90
2019-03-27T00:40:53.844Z,99.90
2019-03-27T00:43:25.358Z,99.90
2019-03-27T00:45:56.819Z,99.90
2019-03-27T00:48:28.511Z,99.90
2019-03-27T00:50:59.956Z,99.90
2019-03-27T00:53:31.439Z,99.90
2019-03-27T00:56:02.881Z,99.90
2019-03-27T00:58:34.399Z,99.90
2019-03-27T01:01:14.163Z,99.90
2019-03-27T01:03:45.771Z,99.90
2019-03-27T01:06:17.592Z,99.90
2019-03-27T01:08:48.986Z,99.90
2019-03-27T01:11:20.391Z,99.90
2019-03-27T01:13:51.918Z,99.90
2019-03-27T01:16:23.510Z,99.90
2019-03-27T01:18:54.930Z,99.90
2019-03-27T01:21:26.622Z,99.90
2019-03-27T01:23:58.040Z,99.90
2019-03-27T01:26:29.506Z,99.90
2019-03-27T01:29:02.218Z,99.90
2019-03-27T01:31:33.622Z,99.90
2019-03-27T01:34:05.078Z,99.90
2019-03-27T01:36:36.746Z,99.90
2019-03-27T01:39:09.296Z,99.90
2019-03-27T01:41:40.758Z,99.90
2019-03-27T01:44:12.758Z,99.90
2019-03-27T01:46:44.162Z,99.90
2019-03-27T01:49:15.901Z,99.90
2019-03-27T01:51:47.399Z,99.90
2019-03-27T01:54:18.870Z,99.90
2019-03-27T01:56:50.581Z,99.90
2019-03-27T01:59:22.032Z,99.90
2019-03-27T02:01:53.600Z,99.90
2019-03-27T02:04:25.022Z,99.90
2019-03-27T02:06:56.810Z,99.90
2019-03-27T02:09:28.210Z,99.90
2019-03-27T02:11:59.710Z,99.90
2019-03-27T02:14:31.255Z,99.90
2019-03-27T02:17:03.142Z,99.90
2019-03-27T02:19:34.725Z,99.90
2019-03-27T02:22:06.954Z,99.90
2019-03-27T02:24:38.673Z,99.90
2019-03-27T02:27:10.094Z,99.90
2019-03-27T02:29:41.692Z,99.90
2019-03-27T02:32:13.174Z,99.90
2019-03-27T02:34:44.715Z,99.90
2019-03-27T02:37:16.101Z,99.90
2019-03-27T02:39:47.812Z,99.90
2019-03-27T02:42:19.294Z,99.90
2019-03-27T02:44:50.843Z,99.90
2019-03-27T02:47:22.237Z,99.90
2019-03-27T02:49:53.811Z,99.90
2019-03-27T02:52:25.247Z,99.90
2019-03-27T02:54:57.063Z,99.90
2019-03-27T02:57:28.433Z,99.90
2019-03-27T02:59:59.853Z,99.90
2019-03-27T03:02:31.261Z,99.90
2019-03-27T03:05:03.160Z,99.90
2019-03-27T03:07:34.694Z,99.90
2019-03-27T03:10:07.154Z,99.90
2019-03-27T03:12:38.885Z,99.90
2019-03-27T03:15:10.995Z,99.90
2019-03-27T03:17:42.683Z,99.90
2019-03-27T03:20:14.502Z,99.90
2019-03-27T03:22:45.940Z,99.90
2019-03-27T03:25:17.540Z,99.90
2019-03-27T03:27:48.970Z,99.90
2019-03-27T03:30:20.378Z,99.90
2019-03-27T03:32:51.914Z,99.90
2019-03-27T03:35:23.329Z,99.90
2019-03-27T03:37:54.987Z,99.90
2019-03-27T03:40:26.367Z,99.90
2019-03-27T03:42:58.043Z,99.90
2019-03-27T03:45:29.508Z,99.90
2019-03-27T03:48:00.921Z,99.90
2019-03-27T03:50:41.907Z,99.90
2019-03-27T03:53:15.602Z,99.90
2019-03-27T03:55:47.153Z,99.90
2019-03-27T03:58:20.121Z,99.90
2019-03-27T04:00:52.502Z,99.90
2019-03-27T04:03:27.186Z,99.90
2019-03-27T04:05:58.910Z,99.90
2019-03-27T04:08:30.379Z,99.90
2019-03-27T04:11:03.229Z,99.90
2019-03-27T04:13:34.900Z,99.90
2019-03-27T04:16:06.722Z,99.90
2019-03-27T04:18:38.148Z,99.90
2019-03-27T04:21:09.827Z,99.90
2019-03-27T04:23:41.230Z,99.90
2019-03-27T04:26:13.011Z,99.90
2019-03-27T04:28:44.444Z,99.90
2019-03-27T04:31:16.241Z,99.90
2019-03-27T04:33:47.664Z,99.90
2019-03-27T04:36:19.067Z,99.90
2019-03-27T04:38:50.477Z,99.90
2019-03-27T04:41:21.983Z,99.90
2019-03-27T04:43:53.410Z,99.90
2019-03-27T04:46:25.145Z,99.90
2019-03-27T04:48:56.532Z,99.90
2019-03-27T04:51:28.169Z,99.90
2019-03-27T04:53:59.638Z,99.90
2019-03-27T04:56:31.107Z,99.90
2019-03-27T04:59:03.338Z,99.90
2019-03-27T05:01:35.051Z,99.90
2019-03-27T05:04:08.281Z,99.90
2019-03-27T05:06:39.721Z,99.90
2019-03-27T05:09:11.218Z,99.90
2019-03-27T05:11:42.625Z,99.90
2019-03-27T05:14:14.355Z,99.90
2019-03-27T05:16:46.116Z,99.90
2019-03-27T05:19:17.561Z,99.90
2019-03-27T05:21:49.224Z,99.90
2019-03-27T05:24:20.672Z,99.90
2019-03-27T05:26:52.092Z,99.90
2019-03-27T05:29:23.561Z,99.90
2019-03-27T05:31:55.191Z,99.90
2019-03-27T05:34:26.614Z,99.90
2019-03-27T05:36:58.341Z,99.90
2019-03-27T05:39:29.874Z,99.90
2019-03-27T05:42:01.293Z,99.90
2019-03-27T05:44:32.754Z,99.90
2019-03-27T05:47:04.515Z,99.90
2019-03-27T05:49:36.180Z,99.90
2019-03-27T05:52:07.636Z,99.90
2019-03-27T05:54:39.292Z,99.90
2019-03-27T05:57:10.731Z,99.90
2019-03-27T05:59:42.257Z,99.90
2019-03-27T06:02:13.675Z,99.90
2019-03-27T06:04:45.198Z,99.90
2019-03-27T06:07:16.879Z,99.90
2019-03-27T06:09:48.289Z,99.90
2019-03-27T06:12:19.784Z,99.90
2019-03-27T06:14:51.185Z,99.90
2019-03-27T06:17:22.635Z,99.90
2019-03-27T06:19:54.286Z,99.90
2019-03-27T06:22:25.753Z,99.90
2019-03-27T06:24:57.337Z,99.90
2019-03-27T06:27:28.804Z,99.90
2019-03-27T06:30:00.407Z,99.90
2019-03-27T06:32:31.805Z,99.90
2019-03-27T06:35:03.583Z,99.90
2019-03-27T06:37:35.267Z,99.90
2019-03-27T06:40:07.863Z,99.90
2019-03-27T06:42:39.465Z,99.90
2019-03-27T06:45:11.103Z,99.90
2019-03-27T06:47:42.530Z,99.90
2019-03-27T06:50:14.265Z,99.90
2019-03-27T06:52:45.706Z,99.90
2019-03-27T06:55:17.618Z,99.90
2019-03-27T06:57:49.031Z,99.90
2019-03-27T07:00:32.764Z,99.90
2019-03-27T07:03:04.336Z,99.90
2019-03-27T07:05:35.793Z,99.90
2019-03-27T07:08:07.659Z,99.90
2019-03-27T07:10:39.392Z,99.90
2019-03-27T07:13:11.136Z,99.90
2019-03-27T07:15:42.615Z,99.90
2019-03-27T07:18:14.360Z,99.90
2019-03-27T07:20:45.891Z,99.90
2019-03-27T07:23:17.857Z,99.90
2019-03-27T07:25:49.320Z,99.90
2019-03-27T07:28:21.101Z,99.90
2019-03-27T07:30:52.575Z,99.90
2019-03-27T07:33:24.136Z,99.90
2019-03-27T07:35:55.621Z,99.90
2019-03-27T07:38:27.351Z,99.90
2019-03-27T07:40:58.758Z,99.90
2019-03-27T07:43:30.425Z,99.90
2019-03-27T07:46:03.704Z,99.90
2019-03-27T07:48:35.475Z,99.90
2019-03-27T07:51:06.976Z,99.90
2019-03-27T07:53:38.361Z,99.90
2019-03-27T07:56:09.860Z,99.90
2019-03-27T07:58:41.499Z,99.90
2019-03-27T08:01:13.183Z,99.90
2019-03-27T08:03:44.810Z,99.90
2019-03-27T08:06:16.727Z,99.90
2019-03-27T08:08:48.583Z,99.90
2019-03-27T08:11:20.020Z,99.90
2019-03-27T08:13:51.705Z,99.90
2019-03-27T08:16:23.664Z,99.90
2019-03-27T08:19:06.980Z,99.90
2019-03-27T08:21:31.216Z,99.90
2019-03-27T08:24:01.701Z,99.90
2019-03-27T08:26:33.128Z,99.90
2019-03-27T08:29:04.864Z,99.90
2019-03-27T08:31:36.584Z,99.90
2019-03-27T08:34:08.041Z,99.90
2019-03-27T08:36:39.681Z,99.90
2019-03-27T08:39:11.346Z,99.90
2019-03-27T08:41:42.828Z,99.90
2019-03-27T08:44:14.591Z,99.90
2019-03-27T08:46:46.037Z,99.90
2019-03-27T08:49:22.336Z,99.90
2019-03-27T08:51:50.989Z,99.90
2019-03-27T08:54:22.749Z,99.90
2019-03-27T08:56:54.471Z,99.10
2019-03-27T08:59:25.912Z,98.40
2019-03-27T09:01:57.545Z,97.70
2019-03-27T09:04:28.983Z,96.10
2019-03-27T09:07:00.704Z,96.40
2019-03-27T09:09:32.170Z,97.70
2019-03-27T09:12:04.107Z,98.30
2019-03-27T09:14:36.371Z,98.40
2019-03-27T09:17:07.812Z,97.90
2019-03-27T09:19:39.522Z,96.80
2019-03-27T09:22:11.271Z,97.40
2019-03-27T09:24:42.741Z,99.20
2019-03-27T09:27:14.199Z,99.50
2019-03-27T09:29:45.630Z,99.90
2019-03-27T09:32:17.325Z,99.90
2019-03-27T09:34:48.753Z,99.90
2019-03-27T09:37:20.471Z,99.90
2019-03-27T09:39:53.428Z,99.60
2019-03-27T09:42:24.859Z,99.90
2019-03-27T09:44:56.295Z,99.90
2019-03-27T09:47:27.763Z,99.90
2019-03-27T09:49:59.256Z,99.90
2019-03-27T09:52:30.646Z,99.90
2019-03-27T09:55:03.355Z,99.90
2019-03-27T09:57:34.856Z,99.90
2019-03-27T10:00:07.308Z,99.90
2019-03-27T10:02:38.749Z,99.90
2019-03-27T10:05:10.510Z,99.90
2019-03-27T10:07:41.988Z,98.90
2019-03-27T10:10:14.001Z,99.10
2019-03-27T10:12:45.483Z,99.20
2019-03-27T10:15:16.966Z,98.30
2019-03-27T10:17:48.454Z,97.70
2019-03-27T10:20:19.937Z,91.00
2019-03-27T10:22:51.613Z,90.50
2019-03-27T10:25:23.437Z,92.60
2019-03-27T10:27:54.909Z,91.40
2019-03-27T10:30:26.426Z,93.30
2019-03-27T10:32:57.886Z,90.80
2019-03-27T10:35:29.367Z,86.30
2019-03-27T10:38:00.859Z,90.10
2019-03-27T10:40:32.298Z,92.40
2019-03-27T10:43:05.987Z,91.40
2019-03-27T10:45:37.447Z,82.20
2019-03-27T10:48:08.854Z,80.40
2019-03-27T10:50:40.376Z,83.80
2019-03-27T10:53:12.083Z,84.30
2019-03-27T10:55:43.777Z,85.90
2019-03-27T10:58:15.563Z,86.10
2019-03-27T11:00:47.029Z,86.70
2019-03-27T11:03:18.802Z,86.50
2019-03-27T11:05:50.218Z,88.00
2019-03-27T11:08:22.169Z,88.90
2019-03-27T11:10:53.780Z,87.80
2019-03-27T11:13:25.249Z,85.70
2019-03-27T11:15:56.984Z,90.00
2019-03-27T11:18:28.520Z,82.80
2019-03-27T11:20:59.993Z,81.60
2019-03-27T11:23:31.477Z,82.90
2019-03-27T11:26:04.187Z,82.50
2019-03-27T11:28:35.837Z,85.60
2019-03-27T11:31:07.635Z,85.10
2019-03-27T11:33:39.045Z,86.10
2019-03-27T11:36:10.505Z,87.70
2019-03-27T11:38:41.985Z,86.10
2019-03-27T11:41:14.107Z,84.30
2019-03-27T11:43:54.703Z,85.90
2019-03-27T11:46:19.316Z,85.40
2019-03-27T11:48:51.009Z,83.40
2019-03-27T11:51:22.459Z,83.50
2019-03-27T11:53:53.960Z,81.50
2019-03-27T11:56:25.514Z,80.70
2019-03-27T11:58:56.935Z,80.80
2019-03-27T12:01:39.186Z,86.20
2019-03-27T12:04:01.595Z,82.00
2019-03-27T12:06:33.102Z,81.90
2019-03-27T12:09:05.998Z,82.50
2019-03-27T12:11:37.939Z,81.40
2019-03-27T12:14:12.259Z,81.10
2019-03-27T12:16:42.985Z,85.10
2019-03-27T12:19:14.598Z,78.80
2019-03-27T12:21:46.106Z,79.80
2019-03-27T12:24:17.716Z,80.10
2019-03-27T12:26:49.103Z,79.90
2019-03-27T12:29:20.581Z,79.40
2019-03-27T12:31:52.257Z,79.20
2019-03-27T12:34:23.935Z,79.90
2019-03-27T12:36:55.423Z,81.00
2019-03-27T12:39:27.125Z,80.90
2019-03-27T12:41:58.569Z,80.00
2019-03-27T12:44:30.135Z,77.70
2019-03-27T12:47:01.636Z,77.40
2019-03-27T12:49:33.218Z,78.90
2019-03-27T12:52:05.572Z,80.10
2019-03-27T12:54:37.158Z,76.70
2019-03-27T12:57:08.571Z,78.40
2019-03-27T12:59:40.059Z,77.10
2019-03-27T13:02:11.830Z,79.60
2019-03-27T13:04:43.287Z,77.90
2019-03-27T13:07:14.836Z,77.60
2019-03-27T13:09:46.232Z,77.10
2019-03-27T13:12:17.686Z,75.00
2019-03-27T13:14:50.488Z,74.90
2019-03-27T13:17:22.671Z,74.80
2019-03-27T13:19:54.144Z,77.60
2019-03-27T13:22:25.678Z,80.40
2019-03-27T13:24:57.287Z,78.20
2019-03-27T13:27:28.753Z,76.20
2019-03-27T13:30:00.391Z,74.10
2019-03-27T13:32:32.128Z,76.10
2019-03-27T13:35:04.541Z,76.00
2019-03-27T13:37:36.253Z,76.00
2019-03-27T13:40:09.007Z,75.10
2019-03-27T13:42:40.483Z,75.80
2019-03-27T13:45:12.724Z,75.20
2019-03-27T13:47:44.182Z,77.70
2019-03-27T13:50:17.889Z,76.60
2019-03-27T13:52:49.330Z,76.10
2019-03-27T13:55:20.759Z,76.00
2019-03-27T13:57:52.309Z,75.50
2019-03-27T14:00:25.204Z,75.40
2019-03-27T14:02:56.621Z,73.80
2019-03-27T14:05:28.263Z,81.30
2019-03-27T14:07:59.811Z,81.60
2019-03-27T14:10:31.511Z,74.50
2019-03-27T14:13:04.603Z,75.20
2019-03-27T14:15:36.479Z,74.40
2019-03-27T14:18:08.245Z,75.10
2019-03-27T14:20:39.651Z,75.80
2019-03-27T14:23:11.266Z,73.90
2019-03-27T14:25:42.696Z,74.90
2019-03-27T14:28:14.632Z,75.60
2019-03-27T14:30:57.575Z,76.80
2019-03-27T14:33:29.362Z,76.80
2019-03-27T14:36:01.129Z,76.30
2019-03-27T14:38:32.905Z,76.50
2019-03-27T14:41:04.559Z,79.40
2019-03-27T14:43:36.296Z,76.20
2019-03-27T14:46:08.162Z,77.10
2019-03-27T14:48:39.634Z,77.50
2019-03-27T14:51:11.554Z,79.50
2019-03-27T14:53:43.307Z,76.10
2019-03-27T14:56:14.743Z,76.10
2019-03-27T14:58:46.347Z,78.30
2019-03-27T15:01:18.082Z,76.90
2019-03-27T15:03:49.557Z,76.60
2019-03-27T15:06:25.679Z,77.10
2019-03-27T15:08:57.508Z,77.10
2019-03-27T15:11:29.377Z,78.50
2019-03-27T15:14:00.849Z,79.00
2019-03-27T15:16:32.296Z,76.30
2019-03-27T15:19:04.740Z,77.60
2019-03-27T15:21:36.470Z,78.40
2019-03-27T15:24:08.308Z,77.80
2019-03-27T15:26:40.074Z,78.70
2019-03-27T15:29:11.858Z,78.20
2019-03-27T15:31:43.503Z,77.90
2019-03-27T15:34:15.316Z,77.40
2019-03-27T15:36:46.814Z,77.80
2019-03-27T15:39:18.570Z,79.00
2019-03-27T15:41:50.064Z,80.10
2019-03-27T15:44:21.806Z,79.70
2019-03-27T15:46:53.389Z,79.40
2019-03-27T15:49:24.864Z,81.60
2019-03-27T15:51:56.672Z,79.70
2019-03-27T15:54:28.119Z,81.00
2019-03-27T15:57:00.071Z,80.40
2019-03-27T15:59:31.533Z,80.00
2019-03-27T16:02:04.280Z,80.80
2019-03-27T16:04:38.669Z,81.50
2019-03-27T16:07:08.952Z,80.80
2019-03-27T16:09:40.614Z,80.80
2019-03-27T16:12:12.676Z,82.20
2019-03-27T16:14:44.475Z,80.70
2019-03-27T16:17:16.247Z,80.60
2019-03-27T16:19:47.742Z,82.30
2019-03-27T16:22:19.230Z,82.90
2019-03-27T16:24:50.826Z,81.80
2019-03-27T16:27:22.848Z,81.90
2019-03-27T16:29:54.455Z,83.20
2019-03-27T16:32:26.181Z,82.80
2019-03-27T16:34:57.689Z,83.10
2019-03-27T16:37:29.154Z,84.60
2019-03-27T16:40:00.672Z,82.30
2019-03-27T16:42:32.170Z,82.70
2019-03-27T16:45:05.257Z,83.50
2019-03-27T16:47:36.778Z,83.70
2019-03-27T16:50:13.721Z,83.60
2019-03-27T16:52:46.782Z,84.70
2019-03-27T16:55:18.770Z,86.50
2019-03-27T16:57:51.433Z,85.40
2019-03-27T17:00:23.077Z,85.60
2019-03-27T17:02:54.643Z,85.20
2019-03-27T17:05:26.060Z,87.30
2019-03-27T17:07:57.695Z,88.60
2019-03-27T17:10:29.415Z,87.70
2019-03-27T17:13:00.986Z,87.00
2019-03-27T17:15:32.805Z,88.30
2019-03-27T17:18:05.488Z,88.70
2019-03-27T17:20:36.885Z,88.50
2019-03-27T17:23:18.057Z,88.90
2019-03-27T17:25:42.180Z,91.00
2019-03-27T17:28:13.890Z,90.80
2019-03-27T17:30:45.679Z,91.20
2019-03-27T17:33:17.159Z,91.50
2019-03-27T17:35:48.695Z,92.00
2019-03-27T17:38:20.833Z,92.30
2019-03-27T17:40:52.302Z,92.50
2019-03-27T17:43:24.072Z,93.20
2019-03-27T17:45:56.286Z,93.30
2019-03-27T17:48:27.764Z,96.40
2019-03-27T17:50:59.254Z,98.20
2019-03-27T17:53:31.944Z,98.10
2019-03-27T17:56:04.937Z,99.90
2019-03-27T17:58:36.617Z,99.90
2019-03-27T18:01:08.597Z,99.90
2019-03-27T18:03:40.250Z,99.90
2019-03-27T18:06:14.893Z,99.90
2019-03-27T18:08:46.857Z,99.90
2019-03-27T18:11:18.954Z,99.90
2019-03-27T18:13:50.678Z,99.90
2019-03-27T18:16:22.299Z,99.90
2019-03-27T18:18:54.001Z,99.90
2019-03-27T18:21:25.519Z,99.90
2019-03-27T18:23:57.030Z,99.90
2019-03-27T18:26:28.990Z,99.90
2019-03-27T18:29:00.704Z,99.90
2019-03-27T18:31:32.223Z,99.90
2019-03-27T18:34:05.086Z,99.90
2019-03-27T18:36:36.896Z,99.90
2019-03-27T18:39:10.748Z,99.90
2019-03-27T18:41:42.222Z,99.90
2019-03-27T18:44:13.917Z,99.90
2019-03-27T18:46:45.398Z,99.90
2019-03-27T18:49:17.117Z,99.90
2019-03-27T18:51:48.594Z,99.90
2019-03-27T18:54:20.329Z,99.90
2019-03-27T18:56:53.255Z,99.90
2019-03-27T18:59:24.803Z,99.90
2019-03-27T19:01:56.310Z,99.90
2019-03-27T19:04:27.841Z,99.90
2019-03-27T19:06:59.348Z,99.90
2019-03-27T19:09:30.964Z,99.90
2019-03-27T19:12:02.641Z,99.90
2019-03-27T19:14:34.131Z,99.90
2019-03-27T19:17:05.936Z,99.90
2019-03-27T19:19:37.470Z,99.90
2019-03-27T19:22:09.186Z,99.90
2019-03-27T19:24:41.071Z,99.90
2019-03-27T19:27:12.590Z,99.90
2019-03-27T19:29:45.062Z,99.90
2019-03-27T19:32:17.949Z,99.90
2019-03-27T19:34:51.084Z,99.90
2019-03-27T19:37:22.996Z,99.90
2019-03-27T19:39:54.490Z,99.90
2019-03-27T19:42:26.154Z,99.90
2019-03-27T19:44:57.601Z,99.90
2019-03-27T19:47:29.148Z,99.90
2019-03-27T19:50:01.052Z,99.90
2019-03-27T19:52:32.526Z,99.90
2019-03-27T19:55:05.468Z,99.90
2019-03-27T19:57:37.242Z,99.90
2019-03-27T20:00:10.611Z,99.90
2019-03-27T20:02:42.121Z,99.90
2019-03-27T20:05:14.006Z,99.90
2019-03-27T20:07:45.490Z,99.90
2019-03-27T20:10:17.398Z,99.90
2019-03-27T20:12:49.186Z,99.90
2019-03-27T20:15:20.700Z,99.90
2019-03-27T20:17:52.188Z,99.90
2019-03-27T20:20:24.085Z,99.90
2019-03-27T20:22:55.520Z,99.90
2019-03-27T20:25:27.220Z,99.90
2019-03-27T20:27:59.227Z,99.90
2019-03-27T20:30:30.793Z,99.90
2019-03-27T20:33:02.325Z,99.90
2019-03-27T20:35:34.223Z,99.90
2019-03-27T20:38:05.777Z,99.90
2019-03-27T20:40:37.292Z,99.90
2019-03-27T20:43:09.395Z,99.90
2019-03-27T20:45:41.237Z,99.90
2019-03-27T20:48:12.713Z,99.90
2019-03-27T20:50:44.453Z,99.90
2019-03-27T20:53:16.202Z,99.90
2019-03-27T20:55:47.781Z,99.90
2019-03-27T20:58:19.419Z,99.90
2019-03-27T21:00:51.555Z,99.90
2019-03-27T21:03:23.304Z,99.90
2019-03-27T21:05:59.693Z,99.90
2019-03-27T21:08:28.394Z,99.90
2019-03-27T21:11:00.224Z,99.90
2019-03-27T21:13:31.788Z,99.90
2019-03-27T21:16:03.296Z,99.90
2019-03-27T21:18:34.789Z,99.90
2019-03-27T21:21:06.579Z,99.90
2019-03-27T21:23:38.191Z,99.90
2019-03-27T21:26:09.904Z,99.90
2019-03-27T21:28:41.410Z,99.90
2019-03-27T21:31:13.466Z,99.90
2019-03-27T21:33:45.383Z,99.90
2019-03-27T21:36:18.212Z,99.90
2019-03-27T21:38:49.693Z,99.90
2019-03-27T21:41:21.544Z,99.90
2019-03-27T21:43:53.179Z,99.90
2019-03-27T21:46:24.719Z,99.90
2019-03-27T21:48:56.376Z,99.90
2019-03-27T21:51:27.839Z,99.90
2019-03-27T21:53:59.265Z,99.90
2019-03-27T21:56:30.793Z,99.90
2019-03-27T21:59:02.694Z,99.90
2019-03-27T22:01:34.243Z,99.90
2019-03-27T22:04:05.773Z,99.90
2019-03-27T22:06:37.391Z,99.90
2019-03-27T22:09:09.932Z,99.90
2019-03-27T22:11:41.380Z,99.90
2019-03-27T22:14:13.446Z,99.90
2019-03-27T22:16:45.230Z,99.90
2019-03-27T22:19:16.676Z,99.90
2019-03-27T22:21:48.393Z,99.90
2019-03-27T22:24:19.886Z,99.90
2019-03-27T22:26:51.387Z,99.90
2019-03-27T22:29:23.133Z,99.90
2019-03-27T22:31:54.595Z,99.90
2019-03-27T22:34:26.213Z,99.90
2019-03-27T22:36:57.685Z,99.90
2019-03-27T22:39:29.394Z,99.90
2019-03-27T22:42:00.885Z,99.90
2019-03-27T22:44:32.439Z,99.90
2019-03-27T22:47:05.620Z,99.90
2019-03-27T22:49:37.244Z,99.90
2019-03-27T22:52:09.085Z,99.90
2019-03-27T22:54:40.534Z,99.90
2019-03-27T22:57:12.056Z,99.90
2019-03-27T22:59:44.728Z,99.90
2019-03-27T23:02:16.421Z,99.90
2019-03-27T23:04:47.926Z,99.90
2019-03-27T23:07:19.551Z,99.90
2019-03-27T23:09:51.078Z,99.90
2019-03-27T23:12:22.840Z,99.90
2019-03-27T23:14:54.400Z,99.90
2019-03-27T23:17:25.936Z,99.90
2019-03-27T23:19:57.444Z,99.90
2019-03-27T23:22:28.868Z,99.90
2019-03-27T23:25:00.646Z,99.90
2019-03-27T23:27:32.028Z,99.90
2019-03-27T23:30:03.442Z,99.90
2019-03-27T23:32:34.972Z,99.90
2019-03-27T23:35:07.335Z,99.90
2019-03-27T23:37:38.727Z,99.90
2019-03-27T23:40:11.456Z,99.90
2019-03-27T23:42:42.870Z,99.90
2019-03-27T23:45:14.853Z,99.90
2019-03-27T23:47:46.474Z,99.90
2019-03-27T23:50:17.928Z,99.90
2019-03-27T23:52:49.700Z,99.90
2019-03-27T23:55:21.667Z,99.90
2019-03-27T23:57:53.146Z,99.90
